Terminal Aerodrome Forecast
Issued by NWS Cleveland, OH

Home | Current Version | Previous Version | Text Only | Print | Product List | Glossary On
Versions: 1 2 3 4 5 6 7 8 9 10 11 12 13 14 15 16 17 18 19 20 21 22 23 24 25 26 27 28 29
000
FTUS41 KCLE 172200 AAA
TAFCLE
TAF AMD
KCLE 172213Z 1722/1824 27015KT P6SM -SHSN OVC020
     FM180600 27010KT P6SM OVC025
     FM181600 27008KT P6SM -SHSN OVC025=

USA.gov is the U.S. government's official web portal to all federal, state and local government web resources and services.